Ali Cat — MZCL8 — position and weather

sailwx.info

Track history (hours):
 
Tides and Currents Weather Stations Pressure Air Temp Water Temp Dewpoint Dewpoint Depression Visibility Wind Speed Wind Dir Waves Ship Positions

Ali Cat

Operator: MRCC Clyde

Last reported at 2018-May-20 20:57 UTC. Time now 2018-May-20 21:25 UTC.
Position N 55°57' W 004°53'.

Length 19 m.

Type: Passenger vessel. MMSI: 235056506.

Date/timePositionNaut miles runAvg speedWind from/ knotsBaromVisibWave heightAir tempDewpointWater temp
2018-May-20 20:57N 55°57' W 004°53'1 1.8
2018-May-20 20:06N 55°58' W 004°51'110.5
2018-May-20 19:59N 55°57' W 004°53'0 0.3
2018-May-20 18:59N 55°58' W 004°53'0 0.4
2018-May-20 17:57N 55°57' W 004°53'1 0.8
2018-May-20 17:01N 55°58' W 004°52'111.3
2018-May-20 16:57N 55°57' W 004°53'0 0.0
2018-May-20 15:58N 55°57' W 004°53'1 0.7
2018-May-20 14:52N 55°57' W 004°55'1 1.0
2018-May-20 13:59N 55°57' W 004°53'2 1.9
2018-May-20 13:07N 55°58' W 004°51'211.3
2018-May-20 12:56N 55°57' W 004°54'1 1.6
2018-May-20 12:04N 55°58' W 004°52'111.6
2018-May-20 12:00N 55°57' W 004°53'1 0.4
2018-May-20 09:05N 55°58' W 004°51'110.3
2018-May-20 09:00N 55°57' W 004°52'1 0.1
2018-May-20 00:44N 55°58' W 004°50'311.7
2018-May-20 00:30N 55°57' W 004°55'2 1.5
2018-May-19 23:21N 55°57' W 004°52'0 0.2
2018-May-19 22:21N 55°57' W 004°52'0 0.1
2018-May-19 20:01N 55°57' W 004°52'0 0.1
2018-May-19 16:00N 55°57' W 004°53'0 0.1
2018-May-19 15:00N 55°57' W 004°52'0 0.4
2018-May-19 14:04N 55°58' W 004°52'0 0.5
2018-May-19 13:01N 55°57' W 004°53'1 0.7
2018-May-19 12:06N 55°58' W 004°52'210.9
2018-May-19 11:58N 55°57' W 004°54'2 2.3
2018-May-19 11:08N 55°58' W 004°51'2 0.6
2018-May-19 07:54N 55°57' W 004°54'0 0.3
2018-May-19 06:56N 55°57' W 004°54'0 0.0
2018-May-19 00:35N 55°57' W 004°53'0 0.1
2018-May-18 23:16N 55°57' W 004°54'0 0.1
2018-May-18 20:55N 55°57' W 004°54'1 0.3
2018-May-18 17:03N 55°58' W 004°52'110.2
2018-May-18 16:55N 55°57' W 004°54'1 0.8
2018-May-18 15:03N 55°58' W 004°52'110.7
2018-May-18 14:59N 55°57' W 004°53'1 0.7
2018-May-18 13:56N 55°57' W 004°54'1 0.9
2018-May-18 13:00N 55°57' W 004°53'0 0.2
2018-May-18 11:59N 55°57' W 004°53'1 1.4
2018-May-18 11:06N 55°58' W 004°51'110.4
2018-May-18 11:00N 55°57' W 004°52'0 0.1
2018-May-18 09:01N 55°57' W 004°52'110.4
2018-May-18 08:57N 55°57' W 004°53'0 0.1
2018-May-18 07:57N 55°57' W 004°53'0 0.3
2018-May-18 06:58N 55°57' W 004°53'0 0.3
2018-May-18 05:54N 55°57' W 004°53'0 0.0
2018-May-17 22:18N 55°57' W 004°53'1 0.4
2018-May-17 20:55N 55°57' W 004°54'1 0.3
2018-May-17 18:58N 55°57' W 004°53'1 0.7
2018-May-17 17:56N 55°57' W 004°54'1 0.3
2018-May-17 14:59N 55°57' W 004°53'1 0.7
2018-May-17 13:55N 55°57' W 004°54'0 0.1
2018-May-17 12:56N 55°57' W 004°54'0 0.2
2018-May-17 11:57N 55°57' W 004°54'0 0.1
2018-May-17 09:56N 55°57' W 004°54'2 1.9
2018-May-17 09:05N 55°58' W 004°51'110.3
2018-May-17 08:58N 55°57' W 004°53'0 0.5
2018-May-17 08:01N 55°57' W 004°52'110.5
2018-May-17 07:58N 55°57' W 004°53'0 0.4
2018-May-17 06:55N 55°57' W 004°54'2 3.0
2018-May-17 06:06N 55°58' W 004°50'110.0
2018-May-17 06:00N 55°57' W 004°52'1 0.1
2018-May-16 22:20N 55°57' W 004°53'1 0.5
2018-May-16 21:03N 55°57' W 004°52'210.0
2018-May-16 20:50N 55°57' W 004°55'3 1.5
2018-May-16 19:06N 55°58' W 004°51'2 0.6
2018-May-16 15:57N 55°57' W 004°54'1 0.7
2018-May-16 14:04N 55°58' W 004°51'210.4
2018-May-16 13:54N 55°57' W 004°54'1 0.8
2018-May-16 12:59N 55°57' W 004°53'0 0.3
2018-May-16 12:01N 55°57' W 004°52'210.6
2018-May-16 11:52N 55°57' W 004°55'2 1.9
2018-May-16 11:01N 55°57' W 004°52'110.5
2018-May-16 10:57N 55°57' W 004°53'2 3.3
2018-May-16 10:12N 55°58' W 004°49'210.4
2018-May-16 09:59N 55°57' W 004°53'2 1.9
2018-May-16 09:08N 55°58' W 004°50'210.4
2018-May-16 08:58N 55°57' W 004°53'0 0.2
2018-May-16 07:57N 55°57' W 004°53'1 1.5
2018-May-16 07:05N 55°57' W 004°51'110.4
2018-May-16 06:59N 55°57' W 004°53'0 0.1
2018-May-16 05:56N 55°57' W 004°53'0 0.0
2018-May-15 22:19N 55°57' W 004°53'0 0.1
2018-May-15 19:57N 55°57' W 004°53'1 1.0
2018-May-15 19:02N 55°57' W 004°52'110.6
2018-May-15 18:55N 55°57' W 004°54'2 1.8
2018-May-15 18:05N 55°57' W 004°51'110.6
2018-May-15 17:59N 55°57' W 004°53'0 0.1
2018-May-15 16:59N 55°57' W 004°53'0 0.1
2018-May-15 16:00N 55°57' W 004°52'1 0.9
2018-May-15 15:04N 55°57' W 004°51'110.2
2018-May-15 14:56N 55°57' W 004°53'0 0.0
2018-May-15 11:57N 55°57' W 004°53'0 0.0
2018-May-14 19:55N 55°57' W 004°54'1 1.6
2018-May-14 19:02N 55°57' W 004°52'111.1
2018-May-14 18:57N 55°57' W 004°53'0 0.2
2018-May-14 17:57N 55°57' W 004°54'1 0.9
2018-May-14 17:01N 55°57' W 004°52'010.5
2018-May-14 16:59N 55°57' W 004°53'0 0.4
2018-May-14 16:01N 55°57' W 004°52'010.2
2018-May-14 15:59N 55°57' W 004°53'0 0.5
2018-May-14 15:02N 55°57' W 004°52'010.1
2018-May-14 15:00N 55°57' W 004°52'1 1.2
2018-May-14 14:06N 55°58' W 004°51'210.1
2018-May-14 13:56N 55°57' W 004°53'1 0.5
2018-May-14 12:53N 55°57' W 004°54'0 0.1
2018-May-14 10:52N 55°57' W 004°55'1 1.1
2018-May-14 09:58N 55°57' W 004°53'1 1.3
2018-May-14 09:05N 55°57' W 004°51'210.6
2018-May-14 08:54N 55°57' W 004°55'1 1.5
2018-May-14 08:00N 55°57' W 004°52'0 0.2
2018-May-14 06:59N 55°57' W 004°53'0 0.2
2018-May-14 05:57N 55°57' W 004°52'1 0.2
2018-May-13 22:08N 55°58' W 004°50'210.7
2018-May-13 21:58N 55°57' W 004°53'0 0.3
2018-May-13 21:00N 55°57' W 004°52'1 1.0
2018-May-13 20:05N 55°58' W 004°51'1 0.5
2018-May-13 19:03N 55°57' W 004°52'1 0.6
2018-May-13 17:58N 55°57' W 004°53'1 0.6
2018-May-13 16:54N 55°57' W 004°54'0 0.2
2018-May-13 14:53N 55°57' W 004°54'1 0.6
2018-May-13 12:59N 55°57' W 004°53'1 1.1
2018-May-13 11:52N 55°57' W 004°55'2 3.0
2018-May-13 11:06N 55°57' W 004°51'110.1
2018-May-13 10:59N 55°57' W 004°53'1 0.6
2018-May-13 10:02N 55°57' W 004°52'1 1.1
2018-May-13 08:55N 55°57' W 004°54'2 2.3
2018-May-13 08:06N 55°58' W 004°51'110.2
2018-May-13 07:58N 55°57' W 004°53'1 0.1
2018-May-13 00:37N 55°57' W 004°52'110.0
2018-May-13 00:29N 55°57' W 004°54'1 0.8
2018-May-12 23:20N 55°57' W 004°53'1 0.6
2018-May-12 22:15N 55°57' W 004°54'1 1.1
2018-May-12 21:02N 55°57' W 004°52'110.4
2018-May-12 20:59N 55°57' W 004°52'0 0.2
2018-May-12 20:00N 55°57' W 004°52'1 1.1
2018-May-12 19:06N 55°58' W 004°51'110.3
2018-May-12 19:00N 55°57' W 004°52'1 0.3
2018-May-12 15:56N 55°57' W 004°54'0 0.0
2018-May-12 13:56N 55°57' W 004°54'2 0.5
2018-May-12 10:08N 55°58' W 004°50'0 0.0
2018-May-12 09:09N 55°58' W 004°50'210.4
2018-May-12 09:00N 55°57' W 004°53'0 0.1
2018-May-12 07:59N 55°57' W 004°53'1 1.1
2018-May-12 07:05N 55°58' W 004°51'110.8
2018-May-12 07:00N 55°57' W 004°52'0 0.1
2018-May-12 05:56N 55°57' W 004°53'1 0.1
2018-May-12 00:37N 55°57' W 004°52'110.2
2018-May-12 00:29N 55°57' W 004°54'1 0.5
2018-May-11 23:18N 55°57' W 004°53'0 1.5
2018-May-11 22:58N 55°57' W 004°54'2 4.2
2018-May-11 22:28N 55°58' W 004°50'1 0.5
2018-May-11 21:01N 55°58' W 004°51'110.5
2018-May-11 20:54N 55°57' W 004°54'0 0.3
2018-May-11 19:58N 55°57' W 004°53'1 0.9
2018-May-11 19:02N 55°58' W 004°52'110.4
2018-May-11 18:57N 55°57' W 004°53'1 0.8
2018-May-11 18:02N 55°57' W 004°52'111.0
2018-May-11 17:56N 55°57' W 004°54'0 0.1
2018-May-11 17:00N 55°57' W 004°54'0 0.2
2018-May-11 15:56N 55°57' W 004°54'1 1.5
2018-May-11 15:03N 55°58' W 004°52'111.0
2018-May-11 14:58N 55°57' W 004°53'1 0.7
2018-May-11 13:53N 55°57' W 004°54'2 3.1
2018-May-11 13:07N 55°58' W 004°50'110.1
2018-May-11 13:00N 55°57' W 004°52'1 0.6
2018-May-11 12:03N 55°57' W 004°51'110.9
2018-May-11 11:59N 55°57' W 004°53'0 0.1
2018-May-11 10:59N 55°57' W 004°53'1 1.4
2018-May-11 10:06N 55°58' W 004°51'110.9
2018-May-11 09:58N 55°57' W 004°53'1 1.4
2018-May-11 09:05N 55°58' W 004°51'211.3
2018-May-11 08:55N 55°57' W 004°54'0 0.3
2018-May-11 07:57N 55°57' W 004°53'1 0.5
2018-May-11 06:54N 55°57' W 004°54'1 0.6
2018-May-11 05:55N 55°57' W 004°53'1 0.1
2018-May-10 22:22N 55°57' W 004°52'0 0.3
2018-May-10 21:03N 55°58' W 004°51'110.1
2018-May-10 21:00N 55°57' W 004°52'  
Track history (hours):
 
Tides and Currents Weather Stations Pressure Air Temp Water Temp Dewpoint Dewpoint Depression Visibility Wind Speed Wind Dir Waves Ship Positions

Ali Cat

Operator: MRCC Clyde

Last reported at 2018-May-20 20:57 UTC. Time now 2018-May-20 21:26 UTC.
Position N 55°57' W 004°53'.

Length 19 m.

Type: Passenger vessel. MMSI: 235056506.

Date/timePositionNaut miles runAvg speedWind from/ knotsBaromVisibWave heightAir tempDewpointWater temp
2018-May-20 20:57N 55°57' W 004°53'1 1.8
2018-May-20 20:06N 55°58' W 004°51'110.5
2018-May-20 19:59N 55°57' W 004°53'0 0.3
2018-May-20 18:59N 55°58' W 004°53'0 0.4
2018-May-20 17:57N 55°57' W 004°53'1 0.8
2018-May-20 17:01N 55°58' W 004°52'111.3
2018-May-20 16:57N 55°57' W 004°53'0 0.0
2018-May-20 15:58N 55°57' W 004°53'1 0.7
2018-May-20 14:52N 55°57' W 004°55'1 1.0
2018-May-20 13:59N 55°57' W 004°53'2 1.9
2018-May-20 13:07N 55°58' W 004°51'211.3
2018-May-20 12:56N 55°57' W 004°54'1 1.6
2018-May-20 12:04N 55°58' W 004°52'111.6
2018-May-20 12:00N 55°57' W 004°53'1 0.4
2018-May-20 09:05N 55°58' W 004°51'110.3
2018-May-20 09:00N 55°57' W 004°52'1 0.1
2018-May-20 00:44N 55°58' W 004°50'311.7
2018-May-20 00:30N 55°57' W 004°55'2 1.5
2018-May-19 23:21N 55°57' W 004°52'0 0.2
2018-May-19 22:21N 55°57' W 004°52'0 0.1
2018-May-19 20:01N 55°57' W 004°52'0 0.1
2018-May-19 16:00N 55°57' W 004°53'0 0.1
2018-May-19 15:00N 55°57' W 004°52'0 0.4
2018-May-19 14:04N 55°58' W 004°52'0 0.5
2018-May-19 13:01N 55°57' W 004°53'1 0.7
2018-May-19 12:06N 55°58' W 004°52'210.9
2018-May-19 11:58N 55°57' W 004°54'2 2.3
2018-May-19 11:08N 55°58' W 004°51'2 0.6
2018-May-19 07:54N 55°57' W 004°54'0 0.3
2018-May-19 06:56N 55°57' W 004°54'0 0.0
2018-May-19 00:35N 55°57' W 004°53'0 0.1
2018-May-18 23:16N 55°57' W 004°54'0 0.1
2018-May-18 20:55N 55°57' W 004°54'1 0.3
2018-May-18 17:03N 55°58' W 004°52'110.2
2018-May-18 16:55N 55°57' W 004°54'1 0.8
2018-May-18 15:03N 55°58' W 004°52'110.7
2018-May-18 14:59N 55°57' W 004°53'1 0.7
2018-May-18 13:56N 55°57' W 004°54'1 0.9
2018-May-18 13:00N 55°57' W 004°53'0 0.2
2018-May-18 11:59N 55°57' W 004°53'1 1.4
2018-May-18 11:06N 55°58' W 004°51'110.4
2018-May-18 11:00N 55°57' W 004°52'0 0.1
2018-May-18 09:01N 55°57' W 004°52'110.4
2018-May-18 08:57N 55°57' W 004°53'0 0.1
2018-May-18 07:57N 55°57' W 004°53'0 0.3
2018-May-18 06:58N 55°57' W 004°53'0 0.3
2018-May-18 05:54N 55°57' W 004°53'0 0.0
2018-May-17 22:18N 55°57' W 004°53'1 0.4
2018-May-17 20:55N 55°57' W 004°54'1 0.3
2018-May-17 18:58N 55°57' W 004°53'1 0.7
2018-May-17 17:56N 55°57' W 004°54'1 0.3
2018-May-17 14:59N 55°57' W 004°53'1 0.7
2018-May-17 13:55N 55°57' W 004°54'0 0.1
2018-May-17 12:56N 55°57' W 004°54'0 0.2
2018-May-17 11:57N 55°57' W 004°54'0 0.1
2018-May-17 09:56N 55°57' W 004°54'2 1.9
2018-May-17 09:05N 55°58' W 004°51'110.3
2018-May-17 08:58N 55°57' W 004°53'0 0.5
2018-May-17 08:01N 55°57' W 004°52'110.5
2018-May-17 07:58N 55°57' W 004°53'0 0.4
2018-May-17 06:55N 55°57' W 004°54'2 3.0
2018-May-17 06:06N 55°58' W 004°50'110.0
2018-May-17 06:00N 55°57' W 004°52'1 0.1
2018-May-16 22:20N 55°57' W 004°53'1 0.5
2018-May-16 21:03N 55°57' W 004°52'210.0
2018-May-16 20:50N 55°57' W 004°55'3 1.5
2018-May-16 19:06N 55°58' W 004°51'2 0.6
2018-May-16 15:57N 55°57' W 004°54'1 0.7
2018-May-16 14:04N 55°58' W 004°51'210.4
2018-May-16 13:54N 55°57' W 004°54'1 0.8
2018-May-16 12:59N 55°57' W 004°53'0 0.3
2018-May-16 12:01N 55°57' W 004°52'210.6
2018-May-16 11:52N 55°57' W 004°55'2 1.9
2018-May-16 11:01N 55°57' W 004°52'110.5
2018-May-16 10:57N 55°57' W 004°53'2 3.3
2018-May-16 10:12N 55°58' W 004°49'210.4
2018-May-16 09:59N 55°57' W 004°53'2 1.9
2018-May-16 09:08N 55°58' W 004°50'210.4
2018-May-16 08:58N 55°57' W 004°53'0 0.2
2018-May-16 07:57N 55°57' W 004°53'1 1.5
2018-May-16 07:05N 55°57' W 004°51'110.4
2018-May-16 06:59N 55°57' W 004°53'0 0.1
2018-May-16 05:56N 55°57' W 004°53'0 0.0
2018-May-15 22:19N 55°57' W 004°53'0 0.1
2018-May-15 19:57N 55°57' W 004°53'1 1.0
2018-May-15 19:02N 55°57' W 004°52'110.6
2018-May-15 18:55N 55°57' W 004°54'2 1.8
2018-May-15 18:05N 55°57' W 004°51'110.6
2018-May-15 17:59N 55°57' W 004°53'0 0.1
2018-May-15 16:59N 55°57' W 004°53'0 0.1
2018-May-15 16:00N 55°57' W 004°52'1 0.9
2018-May-15 15:04N 55°57' W 004°51'110.2
2018-May-15 14:56N 55°57' W 004°53'0 0.0
2018-May-15 11:57N 55°57' W 004°53'0 0.0
2018-May-14 19:55N 55°57' W 004°54'1 1.6
2018-May-14 19:02N 55°57' W 004°52'111.1
2018-May-14 18:57N 55°57' W 004°53'0 0.2
2018-May-14 17:57N 55°57' W 004°54'1 0.9
2018-May-14 17:01N 55°57' W 004°52'010.5
2018-May-14 16:59N 55°57' W 004°53'0 0.4
2018-May-14 16:01N 55°57' W 004°52'010.2
2018-May-14 15:59N 55°57' W 004°53'0 0.5
2018-May-14 15:02N 55°57' W 004°52'010.1
2018-May-14 15:00N 55°57' W 004°52'1 1.2
2018-May-14 14:06N 55°58' W 004°51'210.1
2018-May-14 13:56N 55°57' W 004°53'1 0.5
2018-May-14 12:53N 55°57' W 004°54'0 0.1
2018-May-14 10:52N 55°57' W 004°55'1 1.1
2018-May-14 09:58N 55°57' W 004°53'1 1.3
2018-May-14 09:05N 55°57' W 004°51'210.6
2018-May-14 08:54N 55°57' W 004°55'1 1.5
2018-May-14 08:00N 55°57' W 004°52'0 0.2
2018-May-14 06:59N 55°57' W 004°53'0 0.2
2018-May-14 05:57N 55°57' W 004°52'1 0.2
2018-May-13 22:08N 55°58' W 004°50'210.7
2018-May-13 21:58N 55°57' W 004°53'0 0.3
2018-May-13 21:00N 55°57' W 004°52'1 1.0
2018-May-13 20:05N 55°58' W 004°51'1 0.5
2018-May-13 19:03N 55°57' W 004°52'1 0.6
2018-May-13 17:58N 55°57' W 004°53'1 0.6
2018-May-13 16:54N 55°57' W 004°54'0 0.2
2018-May-13 14:53N 55°57' W 004°54'1 0.6
2018-May-13 12:59N 55°57' W 004°53'1 1.1
2018-May-13 11:52N 55°57' W 004°55'2 3.0
2018-May-13 11:06N 55°57' W 004°51'110.1
2018-May-13 10:59N 55°57' W 004°53'1 0.6
2018-May-13 10:02N 55°57' W 004°52'1 1.1
2018-May-13 08:55N 55°57' W 004°54'2 2.3
2018-May-13 08:06N 55°58' W 004°51'110.2
2018-May-13 07:58N 55°57' W 004°53'1 0.1
2018-May-13 00:37N 55°57' W 004°52'110.0
2018-May-13 00:29N 55°57' W 004°54'1 0.8
2018-May-12 23:20N 55°57' W 004°53'1 0.6
2018-May-12 22:15N 55°57' W 004°54'1 1.1
2018-May-12 21:02N 55°57' W 004°52'110.4
2018-May-12 20:59N 55°57' W 004°52'0 0.2
2018-May-12 20:00N 55°57' W 004°52'1 1.1
2018-May-12 19:06N 55°58' W 004°51'110.3
2018-May-12 19:00N 55°57' W 004°52'1 0.3
2018-May-12 15:56N 55°57' W 004°54'0 0.0
2018-May-12 13:56N 55°57' W 004°54'2 0.5
2018-May-12 10:08N 55°58' W 004°50'0 0.0
2018-May-12 09:09N 55°58' W 004°50'210.4
2018-May-12 09:00N 55°57' W 004°53'0 0.1
2018-May-12 07:59N 55°57' W 004°53'1 1.1
2018-May-12 07:05N 55°58' W 004°51'110.8
2018-May-12 07:00N 55°57' W 004°52'0 0.1
2018-May-12 05:56N 55°57' W 004°53'1 0.1
2018-May-12 00:37N 55°57' W 004°52'110.2
2018-May-12 00:29N 55°57' W 004°54'1 0.5
2018-May-11 23:18N 55°57' W 004°53'0 1.5
2018-May-11 22:58N 55°57' W 004°54'2 4.2
2018-May-11 22:28N 55°58' W 004°50'1 0.5
2018-May-11 21:01N 55°58' W 004°51'110.5
2018-May-11 20:54N 55°57' W 004°54'0 0.3
2018-May-11 19:58N 55°57' W 004°53'1 0.9
2018-May-11 19:02N 55°58' W 004°52'110.4
2018-May-11 18:57N 55°57' W 004°53'1 0.8
2018-May-11 18:02N 55°57' W 004°52'111.0
2018-May-11 17:56N 55°57' W 004°54'0 0.1
2018-May-11 17:00N 55°57' W 004°54'0 0.2
2018-May-11 15:56N 55°57' W 004°54'1 1.5
2018-May-11 15:03N 55°58' W 004°52'111.0
2018-May-11 14:58N 55°57' W 004°53'1 0.7
2018-May-11 13:53N 55°57' W 004°54'2 3.1
2018-May-11 13:07N 55°58' W 004°50'110.1
2018-May-11 13:00N 55°57' W 004°52'1 0.6
2018-May-11 12:03N 55°57' W 004°51'110.9
2018-May-11 11:59N 55°57' W 004°53'0 0.1
2018-May-11 10:59N 55°57' W 004°53'1 1.4
2018-May-11 10:06N 55°58' W 004°51'110.9
2018-May-11 09:58N 55°57' W 004°53'1 1.4
2018-May-11 09:05N 55°58' W 004°51'211.3
2018-May-11 08:55N 55°57' W 004°54'0 0.3
2018-May-11 07:57N 55°57' W 004°53'1 0.5
2018-May-11 06:54N 55°57' W 004°54'1 0.6
2018-May-11 05:55N 55°57' W 004°53'1 0.1
2018-May-10 22:22N 55°57' W 004°52'0 0.3
2018-May-10 21:03N 55°58' W 004°51'110.1
2018-May-10 21:00N 55°57' W 004°52'  

Dump ship's entire track history